sensor_id;sensor_type;location;lat;lon;timestamp;P1;durP1;ratioP1;P2;durP2;ratioP2
36747;SDS011;22716;51.556;5.080;2023-03-09T00:00:13;20.87;;;13.07;;
36747;SDS011;22716;51.556;5.080;2023-03-09T00:02:49;20.00;;;13.88;;
36747;SDS011;22716;51.556;5.080;2023-03-09T00:05:18;20.00;;;12.80;;
36747;SDS011;22716;51.556;5.080;2023-03-09T00:07:47;19.33;;;13.13;;
36747;SDS011;22716;51.556;5.080;2023-03-09T00:10:16;18.30;;;12.37;;
36747;SDS011;22716;51.556;5.080;2023-03-09T00:12:45;22.27;;;13.70;;
36747;SDS011;22716;51.556;5.080;2023-03-09T00:15:13;19.17;;;12.70;;
36747;SDS011;22716;51.556;5.080;2023-03-09T00:17:42;19.20;;;13.77;;
36747;SDS011;22716;51.556;5.080;2023-03-09T00:20:15;21.50;;;13.43;;
36747;SDS011;22716;51.556;5.080;2023-03-09T00:22:48;17.80;;;11.67;;
36747;SDS011;22716;51.556;5.080;2023-03-09T00:25:18;21.50;;;13.63;;
36747;SDS011;22716;51.556;5.080;2023-03-09T00:27:48;20.47;;;13.83;;
36747;SDS011;22716;51.556;5.080;2023-03-09T00:30:18;21.47;;;14.67;;
36747;SDS011;22716;51.556;5.080;2023-03-09T00:32:47;22.87;;;14.40;;
36747;SDS011;22716;51.556;5.080;2023-03-09T00:35:19;22.40;;;14.90;;
36747;SDS011;22716;51.556;5.080;2023-03-09T00:37:48;21.67;;;15.17;;
36747;SDS011;22716;51.556;5.080;2023-03-09T00:40:17;21.87;;;13.67;;
36747;SDS011;22716;51.556;5.080;2023-03-09T00:42:47;20.10;;;14.20;;
36747;SDS011;22716;51.556;5.080;2023-03-09T00:45:15;21.50;;;14.17;;
36747;SDS011;22716;51.556;5.080;2023-03-09T00:47:49;21.00;;;14.40;;
36747;SDS011;22716;51.556;5.080;2023-03-09T00:50:20;19.70;;;13.17;;
36747;SDS011;22716;51.556;5.080;2023-03-09T00:52:49;17.90;;;12.63;;
36747;SDS011;22716;51.556;5.080;2023-03-09T00:55:17;18.47;;;12.77;;
36747;SDS011;22716;51.556;5.080;2023-03-09T00:57:46;21.40;;;14.10;;
36747;SDS011;22716;51.556;5.080;2023-03-09T01:00:16;19.70;;;12.93;;
36747;SDS011;22716;51.556;5.080;2023-03-09T01:02:46;20.23;;;13.20;;
36747;SDS011;22716;51.556;5.080;2023-03-09T01:05:15;19.70;;;12.90;;
36747;SDS011;22716;51.556;5.080;2023-03-09T01:07:46;20.73;;;13.23;;
36747;SDS011;22716;51.556;5.080;2023-03-09T01:10:16;18.17;;;11.70;;
36747;SDS011;22716;51.556;5.080;2023-03-09T01:12:45;16.43;;;11.83;;
36747;SDS011;22716;51.556;5.080;2023-03-09T01:15:14;21.27;;;13.40;;
36747;SDS011;22716;51.556;5.080;2023-03-09T01:17:43;19.93;;;13.57;;
36747;SDS011;22716;51.556;5.080;2023-03-09T01:20:13;21.53;;;14.00;;
36747;SDS011;22716;51.556;5.080;2023-03-09T01:22:42;19.20;;;12.83;;
36747;SDS011;22716;51.556;5.080;2023-03-09T01:25:13;17.83;;;12.57;;
36747;SDS011;22716;51.556;5.080;2023-03-09T01:27:42;20.30;;;12.87;;
36747;SDS011;22716;51.556;5.080;2023-03-09T01:30:12;21.47;;;13.80;;
36747;SDS011;22716;51.556;5.080;2023-03-09T01:32:42;20.93;;;13.33;;
36747;SDS011;22716;51.556;5.080;2023-03-09T01:35:10;19.07;;;13.33;;
36747;SDS011;22716;51.556;5.080;2023-03-09T01:37:39;23.03;;;14.20;;
36747;SDS011;22716;51.556;5.080;2023-03-09T01:40:10;23.03;;;13.93;;
36747;SDS011;22716;51.556;5.080;2023-03-09T01:42:52;22.87;;;14.70;;
36747;SDS011;22716;51.556;5.080;2023-03-09T01:48:21;21.87;;;13.87;;
36747;SDS011;22716;51.556;5.080;2023-03-09T01:50:50;23.07;;;13.90;;
36747;SDS011;22716;51.556;5.080;2023-03-09T01:53:18;19.60;;;13.20;;
36747;SDS011;22716;51.556;5.080;2023-03-09T01:55:50;22.37;;;14.37;;
36747;SDS011;22716;51.556;5.080;2023-03-09T01:58:22;22.97;;;14.20;;
36747;SDS011;22716;51.556;5.080;2023-03-09T02:00:54;22.60;;;14.10;;
36747;SDS011;22716;51.556;5.080;2023-03-09T02:03:25;22.53;;;15.23;;
36747;SDS011;22716;51.556;5.080;2023-03-09T02:05:58;19.70;;;12.83;;
36747;SDS011;22716;51.556;5.080;2023-03-09T02:08:30;21.57;;;13.10;;
36747;SDS011;22716;51.556;5.080;2023-03-09T02:11:03;23.60;;;13.53;;
36747;SDS011;22716;51.556;5.080;2023-03-09T02:13:36;23.23;;;14.57;;
36747;SDS011;22716;51.556;5.080;2023-03-09T02:16:10;19.63;;;13.73;;
36747;SDS011;22716;51.556;5.080;2023-03-09T02:18:38;25.50;;;15.80;;
36747;SDS011;22716;51.556;5.080;2023-03-09T02:21:08;21.37;;;14.70;;
36747;SDS011;22716;51.556;5.080;2023-03-09T02:23:47;24.43;;;15.37;;
36747;SDS011;22716;51.556;5.080;2023-03-09T02:26:25;22.87;;;13.83;;
36747;SDS011;22716;51.556;5.080;2023-03-09T02:29:00;24.43;;;15.20;;
36747;SDS011;22716;51.556;5.080;2023-03-09T02:31:29;21.93;;;13.87;;
36747;SDS011;22716;51.556;5.080;2023-03-09T02:33:58;22.27;;;14.77;;
36747;SDS011;22716;51.556;5.080;2023-03-09T02:36:26;23.23;;;15.20;;
36747;SDS011;22716;51.556;5.080;2023-03-09T02:38:55;25.23;;;14.87;;
36747;SDS011;22716;51.556;5.080;2023-03-09T02:41:34;23.67;;;15.10;;
36747;SDS011;22716;51.556;5.080;2023-03-09T02:44:05;22.80;;;15.07;;
36747;SDS011;22716;51.556;5.080;2023-03-09T02:46:35;26.93;;;16.77;;
36747;SDS011;22716;51.556;5.080;2023-03-09T02:49:04;25.17;;;16.20;;
36747;SDS011;22716;51.556;5.080;2023-03-09T02:51:32;25.77;;;15.97;;
36747;SDS011;22716;51.556;5.080;2023-03-09T02:54:01;26.50;;;15.60;;
36747;SDS011;22716;51.556;5.080;2023-03-09T02:56:30;24.63;;;14.87;;
36747;SDS011;22716;51.556;5.080;2023-03-09T02:58:59;23.20;;;15.13;;
36747;SDS011;22716;51.556;5.080;2023-03-09T03:01:30;23.67;;;16.00;;
36747;SDS011;22716;51.556;5.080;2023-03-09T03:03:59;26.97;;;17.57;;
36747;SDS011;22716;51.556;5.080;2023-03-09T03:06:28;26.00;;;17.03;;
36747;SDS011;22716;51.556;5.080;2023-03-09T03:08:57;22.53;;;14.93;;
36747;SDS011;22716;51.556;5.080;2023-03-09T03:11:26;26.97;;;17.20;;
36747;SDS011;22716;51.556;5.080;2023-03-09T03:13:54;30.77;;;17.73;;
36747;SDS011;22716;51.556;5.080;2023-03-09T03:16:23;27.20;;;16.43;;
36747;SDS011;22716;51.556;5.080;2023-03-09T03:18:54;28.53;;;17.27;;
36747;SDS011;22716;51.556;5.080;2023-03-09T03:21:23;27.87;;;17.43;;
36747;SDS011;22716;51.556;5.080;2023-03-09T03:23:52;28.80;;;17.33;;
36747;SDS011;22716;51.556;5.080;2023-03-09T03:26:21;27.70;;;17.20;;
36747;SDS011;22716;51.556;5.080;2023-03-09T03:28:49;27.23;;;16.43;;
36747;SDS011;22716;51.556;5.080;2023-03-09T03:31:18;25.53;;;17.63;;
36747;SDS011;22716;51.556;5.080;2023-03-09T03:33:47;28.90;;;17.23;;
36747;SDS011;22716;51.556;5.080;2023-03-09T03:36:18;25.90;;;15.80;;
36747;SDS011;22716;51.556;5.080;2023-03-09T03:38:47;32.67;;;17.93;;
36747;SDS011;22716;51.556;5.080;2023-03-09T03:41:16;28.93;;;17.27;;
36747;SDS011;22716;51.556;5.080;2023-03-09T03:43:44;30.47;;;18.40;;
36747;SDS011;22716;51.556;5.080;2023-03-09T03:46:13;26.80;;;17.50;;
36747;SDS011;22716;51.556;5.080;2023-03-09T03:48:42;31.63;;;19.90;;
36747;SDS011;22716;51.556;5.080;2023-03-09T03:51:11;30.87;;;19.50;;
36747;SDS011;22716;51.556;5.080;2023-03-09T03:53:42;31.67;;;19.33;;
36747;SDS011;22716;51.556;5.080;2023-03-09T03:56:11;29.00;;;19.10;;
36747;SDS011;22716;51.556;5.080;2023-03-09T03:58:39;28.13;;;18.30;;
36747;SDS011;22716;51.556;5.080;2023-03-09T04:01:08;29.67;;;18.73;;
36747;SDS011;22716;51.556;5.080;2023-03-09T04:03:37;27.90;;;19.10;;
36747;SDS011;22716;51.556;5.080;2023-03-09T04:06:06;32.17;;;19.57;;
36747;SDS011;22716;51.556;5.080;2023-03-09T04:08:35;29.70;;;18.23;;
36747;SDS011;22716;51.556;5.080;2023-03-09T04:11:07;30.53;;;19.47;;
36747;SDS011;22716;51.556;5.080;2023-03-09T04:13:36;32.93;;;18.67;;
36747;SDS011;22716;51.556;5.080;2023-03-09T04:16:06;33.73;;;20.67;;
36747;SDS011;22716;51.556;5.080;2023-03-09T04:18:34;34.50;;;19.10;;
36747;SDS011;22716;51.556;5.080;2023-03-09T04:21:03;30.37;;;19.10;;
36747;SDS011;22716;51.556;5.080;2023-03-09T04:23:32;32.17;;;19.07;;
36747;SDS011;22716;51.556;5.080;2023-03-09T04:26:02;33.73;;;20.70;;
36747;SDS011;22716;51.556;5.080;2023-03-09T04:28:35;30.67;;;18.47;;
36747;SDS011;22716;51.556;5.080;2023-03-09T04:31:04;30.53;;;18.87;;
36747;SDS011;22716;51.556;5.080;2023-03-09T04:33:33;34.27;;;21.37;;
36747;SDS011;22716;51.556;5.080;2023-03-09T04:36:02;37.50;;;21.70;;
36747;SDS011;22716;51.556;5.080;2023-03-09T04:38:32;34.93;;;21.50;;
36747;SDS011;22716;51.556;5.080;2023-03-09T04:41:00;35.33;;;20.43;;
36747;SDS011;22716;51.556;5.080;2023-03-09T04:43:29;38.80;;;21.17;;
36747;SDS011;22716;51.556;5.080;2023-03-09T04:46:01;38.07;;;21.10;;
36747;SDS011;22716;51.556;5.080;2023-03-09T04:48:29;34.17;;;19.43;;
36747;SDS011;22716;51.556;5.080;2023-03-09T04:50:58;32.70;;;20.33;;
36747;SDS011;22716;51.556;5.080;2023-03-09T04:53:27;37.90;;;21.57;;
36747;SDS011;22716;51.556;5.080;2023-03-09T04:55:56;36.67;;;21.93;;
36747;SDS011;22716;51.556;5.080;2023-03-09T04:58:25;34.93;;;19.77;;
36747;SDS011;22716;51.556;5.080;2023-03-09T05:00:53;33.93;;;21.83;;
36747;SDS011;22716;51.556;5.080;2023-03-09T05:03:25;40.63;;;20.47;;
36747;SDS011;22716;51.556;5.080;2023-03-09T05:05:53;38.23;;;21.57;;
36747;SDS011;22716;51.556;5.080;2023-03-09T05:08:22;42.70;;;22.50;;
36747;SDS011;22716;51.556;5.080;2023-03-09T05:10:51;39.50;;;20.47;;
36747;SDS011;22716;51.556;5.080;2023-03-09T05:13:19;41.10;;;23.30;;
36747;SDS011;22716;51.556;5.080;2023-03-09T05:15:48;40.77;;;22.13;;
36747;SDS011;22716;51.556;5.080;2023-03-09T05:18:17;38.03;;;21.47;;
36747;SDS011;22716;51.556;5.080;2023-03-09T05:20:49;40.40;;;22.53;;
36747;SDS011;22716;51.556;5.080;2023-03-09T05:23:18;39.00;;;23.17;;
36747;SDS011;22716;51.556;5.080;2023-03-09T05:25:54;39.90;;;23.40;;
36747;SDS011;22716;51.556;5.080;2023-03-09T05:28:24;40.03;;;21.77;;
36747;SDS011;22716;51.556;5.080;2023-03-09T05:30:53;38.87;;;22.87;;
36747;SDS011;22716;51.556;5.080;2023-03-09T05:33:22;38.43;;;22.33;;
36747;SDS011;22716;51.556;5.080;2023-03-09T05:35:53;40.40;;;21.67;;
36747;SDS011;22716;51.556;5.080;2023-03-09T05:38:22;44.17;;;24.17;;
36747;SDS011;22716;51.556;5.080;2023-03-09T05:40:51;38.43;;;21.90;;
36747;SDS011;22716;51.556;5.080;2023-03-09T05:43:19;37.13;;;23.27;;
36747;SDS011;22716;51.556;5.080;2023-03-09T05:45:53;42.90;;;23.87;;
36747;SDS011;22716;51.556;5.080;2023-03-09T05:48:23;39.43;;;21.10;;
36747;SDS011;22716;51.556;5.080;2023-03-09T05:50:58;44.07;;;22.43;;
36747;SDS011;22716;51.556;5.080;2023-03-09T05:53:27;41.30;;;23.50;;
36747;SDS011;22716;51.556;5.080;2023-03-09T05:55:56;42.60;;;23.03;;
36747;SDS011;22716;51.556;5.080;2023-03-09T05:58:25;35.80;;;22.20;;
36747;SDS011;22716;51.556;5.080;2023-03-09T06:00:54;39.37;;;22.83;;
36747;SDS011;22716;51.556;5.080;2023-03-09T06:03:24;46.43;;;24.80;;
36747;SDS011;22716;51.556;5.080;2023-03-09T06:06:00;38.30;;;22.43;;
36747;SDS011;22716;51.556;5.080;2023-03-09T06:08:31;47.13;;;23.13;;
36747;SDS011;22716;51.556;5.080;2023-03-09T06:11:00;45.53;;;24.07;;
36747;SDS011;22716;51.556;5.080;2023-03-09T06:13:29;41.90;;;24.57;;
36747;SDS011;22716;51.556;5.080;2023-03-09T06:16:01;40.80;;;22.50;;
36747;SDS011;22716;51.556;5.080;2023-03-09T06:18:31;45.70;;;24.00;;
36747;SDS011;22716;51.556;5.080;2023-03-09T06:21:03;39.70;;;24.20;;
36747;SDS011;22716;51.556;5.080;2023-03-09T06:23:34;40.65;;;23.27;;
36747;SDS011;22716;51.556;5.080;2023-03-09T06:26:04;44.53;;;24.37;;
36747;SDS011;22716;51.556;5.080;2023-03-09T06:28:34;40.37;;;24.67;;
36747;SDS011;22716;51.556;5.080;2023-03-09T06:31:05;47.13;;;25.43;;
36747;SDS011;22716;51.556;5.080;2023-03-09T06:33:37;43.55;;;23.48;;
36747;SDS011;22716;51.556;5.080;2023-03-09T06:36:09;40.50;;;23.27;;
36747;SDS011;22716;51.556;5.080;2023-03-09T06:38:39;43.23;;;23.20;;
36747;SDS011;22716;51.556;5.080;2023-03-09T06:41:08;42.93;;;23.27;;
36747;SDS011;22716;51.556;5.080;2023-03-09T06:43:38;41.77;;;24.50;;
36747;SDS011;22716;51.556;5.080;2023-03-09T06:46:07;41.43;;;22.80;;
36747;SDS011;22716;51.556;5.080;2023-03-09T06:48:36;44.40;;;24.27;;
36747;SDS011;22716;51.556;5.080;2023-03-09T06:51:05;35.20;;;20.83;;
36747;SDS011;22716;51.556;5.080;2023-03-09T06:53:36;42.63;;;23.23;;
36747;SDS011;22716;51.556;5.080;2023-03-09T06:56:06;42.03;;;24.67;;
36747;SDS011;22716;51.556;5.080;2023-03-09T06:58:36;41.07;;;23.77;;
36747;SDS011;22716;51.556;5.080;2023-03-09T07:01:05;43.07;;;22.67;;
36747;SDS011;22716;51.556;5.080;2023-03-09T07:03:35;44.47;;;23.57;;
36747;SDS011;22716;51.556;5.080;2023-03-09T07:06:05;38.00;;;22.43;;
36747;SDS011;22716;51.556;5.080;2023-03-09T07:08:36;41.07;;;23.00;;
36747;SDS011;22716;51.556;5.080;2023-03-09T07:11:05;42.47;;;23.10;;
36747;SDS011;22716;51.556;5.080;2023-03-09T07:13:34;36.80;;;22.90;;
36747;SDS011;22716;51.556;5.080;2023-03-09T07:16:03;42.97;;;23.07;;
36747;SDS011;22716;51.556;5.080;2023-03-09T07:18:33;36.90;;;23.33;;
36747;SDS011;22716;51.556;5.080;2023-03-09T07:21:02;41.63;;;23.20;;
36747;SDS011;22716;51.556;5.080;2023-03-09T07:23:32;35.87;;;21.70;;
36747;SDS011;22716;51.556;5.080;2023-03-09T07:26:03;40.53;;;22.97;;
36747;SDS011;22716;51.556;5.080;2023-03-09T07:28:33;38.33;;;20.93;;
36747;SDS011;22716;51.556;5.080;2023-03-09T07:31:05;42.50;;;23.70;;
36747;SDS011;22716;51.556;5.080;2023-03-09T07:33:35;43.10;;;22.93;;
36747;SDS011;22716;51.556;5.080;2023-03-09T07:36:05;42.90;;;23.77;;
36747;SDS011;22716;51.556;5.080;2023-03-09T07:38:35;42.23;;;22.63;;
36747;SDS011;22716;51.556;5.080;2023-03-09T07:41:06;40.80;;;23.13;;
36747;SDS011;22716;51.556;5.080;2023-03-09T07:43:35;35.30;;;22.27;;
36747;SDS011;22716;51.556;5.080;2023-03-09T07:46:09;36.13;;;21.05;;
36747;SDS011;22716;51.556;5.080;2023-03-09T07:48:39;39.33;;;22.77;;
36747;SDS011;22716;51.556;5.080;2023-03-09T07:51:08;37.97;;;22.50;;
36747;SDS011;22716;51.556;5.080;2023-03-09T07:53:38;42.63;;;22.47;;
36747;SDS011;22716;51.556;5.080;2023-03-09T07:56:10;40.63;;;23.03;;
36747;SDS011;22716;51.556;5.080;2023-03-09T07:58:39;40.07;;;20.57;;
36747;SDS011;22716;51.556;5.080;2023-03-09T08:01:12;41.83;;;22.77;;
36747;SDS011;22716;51.556;5.080;2023-03-09T08:03:43;41.03;;;22.50;;
36747;SDS011;22716;51.556;5.080;2023-03-09T08:06:13;45.83;;;23.33;;
36747;SDS011;22716;51.556;5.080;2023-03-09T08:08:44;40.67;;;23.30;;
36747;SDS011;22716;51.556;5.080;2023-03-09T08:11:15;38.63;;;22.37;;
36747;SDS011;22716;51.556;5.080;2023-03-09T08:13:44;39.97;;;21.63;;
36747;SDS011;22716;51.556;5.080;2023-03-09T08:16:13;41.03;;;21.37;;
36747;SDS011;22716;51.556;5.080;2023-03-09T08:18:42;39.40;;;21.40;;
36747;SDS011;22716;51.556;5.080;2023-03-09T08:21:12;42.57;;;23.17;;
36747;SDS011;22716;51.556;5.080;2023-03-09T08:23:42;42.00;;;21.23;;
36747;SDS011;22716;51.556;5.080;2023-03-09T08:26:12;36.53;;;20.73;;
36747;SDS011;22716;51.556;5.080;2023-03-09T08:28:45;39.67;;;21.33;;
36747;SDS011;22716;51.556;5.080;2023-03-09T08:31:14;42.07;;;21.87;;
36747;SDS011;22716;51.556;5.080;2023-03-09T08:33:45;42.20;;;20.57;;
36747;SDS011;22716;51.556;5.080;2023-03-09T08:36:15;38.93;;;21.60;;
36747;SDS011;22716;51.556;5.080;2023-03-09T08:38:45;39.47;;;21.83;;
36747;SDS011;22716;51.556;5.080;2023-03-09T08:41:16;35.93;;;20.70;;
36747;SDS011;22716;51.556;5.080;2023-03-09T08:43:49;41.33;;;21.13;;
36747;SDS011;22716;51.556;5.080;2023-03-09T08:46:20;39.27;;;21.57;;
36747;SDS011;22716;51.556;5.080;2023-03-09T08:48:49;42.13;;;23.20;;
36747;SDS011;22716;51.556;5.080;2023-03-09T08:51:17;42.73;;;23.50;;
36747;SDS011;22716;51.556;5.080;2023-03-09T08:53:46;34.27;;;20.00;;
36747;SDS011;22716;51.556;5.080;2023-03-09T08:56:16;40.77;;;22.90;;
36747;SDS011;22716;51.556;5.080;2023-03-09T08:58:44;43.70;;;21.43;;
36747;SDS011;22716;51.556;5.080;2023-03-09T09:01:16;38.93;;;21.73;;
36747;SDS011;22716;51.556;5.080;2023-03-09T09:03:45;36.80;;;20.20;;
36747;SDS011;22716;51.556;5.080;2023-03-09T09:06:14;38.33;;;21.10;;
36747;SDS011;22716;51.556;5.080;2023-03-09T09:08:43;37.10;;;20.73;;
36747;SDS011;22716;51.556;5.080;2023-03-09T09:11:13;36.80;;;20.73;;
36747;SDS011;22716;51.556;5.080;2023-03-09T09:13:43;37.77;;;20.70;;
36747;SDS011;22716;51.556;5.080;2023-03-09T09:16:15;35.73;;;21.03;;
36747;SDS011;22716;51.556;5.080;2023-03-09T09:18:44;40.63;;;21.33;;
36747;SDS011;22716;51.556;5.080;2023-03-09T09:21:13;49.97;;;24.10;;
36747;SDS011;22716;51.556;5.080;2023-03-09T09:23:44;39.57;;;19.50;;
36747;SDS011;22716;51.556;5.080;2023-03-09T09:26:14;37.57;;;19.57;;
36747;SDS011;22716;51.556;5.080;2023-03-09T09:28:44;35.60;;;19.87;;
36747;SDS011;22716;51.556;5.080;2023-03-09T09:31:17;39.43;;;21.40;;
36747;SDS011;22716;51.556;5.080;2023-03-09T09:33:48;43.07;;;22.47;;
36747;SDS011;22716;51.556;5.080;2023-03-09T09:36:17;39.47;;;21.33;;
36747;SDS011;22716;51.556;5.080;2023-03-09T09:38:47;40.20;;;21.20;;
36747;SDS011;22716;51.556;5.080;2023-03-09T09:41:17;39.87;;;21.10;;
36747;SDS011;22716;51.556;5.080;2023-03-09T09:43:51;36.17;;;21.20;;
36747;SDS011;22716;51.556;5.080;2023-03-09T09:46:26;36.83;;;19.27;;
36747;SDS011;22716;51.556;5.080;2023-03-09T09:48:57;37.30;;;22.73;;
36747;SDS011;22716;51.556;5.080;2023-03-09T09:51:40;34.60;;;20.03;;
36747;SDS011;22716;51.556;5.080;2023-03-09T09:54:29;36.60;;;20.10;;
36747;SDS011;22716;51.556;5.080;2023-03-09T09:57:05;46.60;;;23.27;;
36747;SDS011;22716;51.556;5.080;2023-03-09T09:59:43;36.97;;;20.10;;
36747;SDS011;22716;51.556;5.080;2023-03-09T10:05:26;43.53;;;22.10;;
36747;SDS011;22716;51.556;5.080;2023-03-09T10:08:04;35.83;;;19.37;;
36747;SDS011;22716;51.556;5.080;2023-03-09T10:10:46;38.88;;;21.58;;
36747;SDS011;22716;51.556;5.080;2023-03-09T10:13:18;35.60;;;20.47;;
36747;SDS011;22716;51.556;5.080;2023-03-09T10:15:52;38.77;;;21.77;;
36747;SDS011;22716;51.556;5.080;2023-03-09T10:18:25;38.97;;;21.67;;
36747;SDS011;22716;51.556;5.080;2023-03-09T10:21:01;40.40;;;23.53;;
36747;SDS011;22716;51.556;5.080;2023-03-09T10:23:33;37.83;;;21.93;;
36747;SDS011;22716;51.556;5.080;2023-03-09T10:26:04;39.73;;;22.50;;
36747;SDS011;22716;51.556;5.080;2023-03-09T10:28:49;36.27;;;21.50;;
36747;SDS011;22716;51.556;5.080;2023-03-09T10:31:21;39.97;;;22.13;;
36747;SDS011;22716;51.556;5.080;2023-03-09T10:34:02;34.43;;;20.60;;
36747;SDS011;22716;51.556;5.080;2023-03-09T10:36:40;42.87;;;22.07;;
36747;SDS011;22716;51.556;5.080;2023-03-09T10:39:15;40.73;;;21.10;;
36747;SDS011;22716;51.556;5.080;2023-03-09T10:41:44;37.03;;;21.10;;
36747;SDS011;22716;51.556;5.080;2023-03-09T10:44:14;33.63;;;20.97;;
36747;SDS011;22716;51.556;5.080;2023-03-09T10:46:53;37.27;;;21.73;;
36747;SDS011;22716;51.556;5.080;2023-03-09T10:49:26;39.27;;;23.37;;
36747;SDS011;22716;51.556;5.080;2023-03-09T10:51:56;41.70;;;23.00;;
36747;SDS011;22716;51.556;5.080;2023-03-09T10:54:29;41.20;;;23.57;;
36747;SDS011;22716;51.556;5.080;2023-03-09T10:57:02;36.47;;;22.00;;
36747;SDS011;22716;51.556;5.080;2023-03-09T10:59:54;41.67;;;22.47;;
36747;SDS011;22716;51.556;5.080;2023-03-09T11:02:29;35.87;;;19.83;;
36747;SDS011;22716;51.556;5.080;2023-03-09T11:05:09;39.40;;;21.80;;
36747;SDS011;22716;51.556;5.080;2023-03-09T11:07:42;39.13;;;21.13;;
36747;SDS011;22716;51.556;5.080;2023-03-09T11:10:20;35.17;;;20.33;;
36747;SDS011;22716;51.556;5.080;2023-03-09T11:12:51;39.10;;;21.80;;
36747;SDS011;22716;51.556;5.080;2023-03-09T11:15:25;36.60;;;22.07;;
36747;SDS011;22716;51.556;5.080;2023-03-09T11:17:56;37.23;;;20.90;;
36747;SDS011;22716;51.556;5.080;2023-03-09T11:20:33;34.93;;;19.90;;
36747;SDS011;22716;51.556;5.080;2023-03-09T11:23:16;33.93;;;20.27;;
36747;SDS011;22716;51.556;5.080;2023-03-09T11:25:59;37.27;;;21.80;;
36747;SDS011;22716;51.556;5.080;2023-03-09T11:28:37;39.57;;;21.00;;
36747;SDS011;22716;51.556;5.080;2023-03-09T11:31:13;40.70;;;22.63;;
36747;SDS011;22716;51.556;5.080;2023-03-09T11:33:45;38.00;;;21.10;;
36747;SDS011;22716;51.556;5.080;2023-03-09T11:36:19;40.03;;;22.53;;
36747;SDS011;22716;51.556;5.080;2023-03-09T11:38:51;39.03;;;21.33;;
36747;SDS011;22716;51.556;5.080;2023-03-09T11:41:23;40.67;;;22.80;;
36747;SDS011;22716;51.556;5.080;2023-03-09T11:43:55;37.07;;;23.23;;
36747;SDS011;22716;51.556;5.080;2023-03-09T11:46:30;38.10;;;21.67;;
36747;SDS011;22716;51.556;5.080;2023-03-09T11:49:04;38.10;;;22.63;;
36747;SDS011;22716;51.556;5.080;2023-03-09T11:51:39;35.33;;;20.57;;
36747;SDS011;22716;51.556;5.080;2023-03-09T11:54:17;38.23;;;21.67;;
36747;SDS011;22716;51.556;5.080;2023-03-09T11:56:52;40.07;;;22.10;;
36747;SDS011;22716;51.556;5.080;2023-03-09T11:59:23;36.13;;;22.00;;
36747;SDS011;22716;51.556;5.080;2023-03-09T12:02:01;36.20;;;20.93;;
36747;SDS011;22716;51.556;5.080;2023-03-09T12:04:40;38.70;;;24.23;;
36747;SDS011;22716;51.556;5.080;2023-03-09T12:07:17;40.93;;;23.63;;
36747;SDS011;22716;51.556;5.080;2023-03-09T12:09:52;40.93;;;23.00;;
36747;SDS011;22716;51.556;5.080;2023-03-09T12:12:29;38.30;;;21.90;;
36747;SDS011;22716;51.556;5.080;2023-03-09T12:15:03;39.77;;;21.97;;
36747;SDS011;22716;51.556;5.080;2023-03-09T12:17:42;41.67;;;22.10;;
36747;SDS011;22716;51.556;5.080;2023-03-09T12:20:20;39.57;;;23.13;;
36747;SDS011;22716;51.556;5.080;2023-03-09T12:22:58;37.23;;;21.53;;
36747;SDS011;22716;51.556;5.080;2023-03-09T12:25:26;45.17;;;23.83;;
36747;SDS011;22716;51.556;5.080;2023-03-09T12:27:57;37.57;;;22.33;;
36747;SDS011;22716;51.556;5.080;2023-03-09T12:30:30;32.10;;;19.77;;
36747;SDS011;22716;51.556;5.080;2023-03-09T12:33:01;35.37;;;20.77;;
36747;SDS011;22716;51.556;5.080;2023-03-09T12:38:33;33.87;;;19.53;;
36747;SDS011;22716;51.556;5.080;2023-03-09T12:41:02;38.83;;;20.70;;
36747;SDS011;22716;51.556;5.080;2023-03-09T12:49:32;37.63;;;20.97;;
36747;SDS011;22716;51.556;5.080;2023-03-09T12:52:10;32.53;;;18.87;;
36747;SDS011;22716;51.556;5.080;2023-03-09T12:54:59;30.97;;;18.17;;
36747;SDS011;22716;51.556;5.080;2023-03-09T12:57:31;34.37;;;19.73;;
36747;SDS011;22716;51.556;5.080;2023-03-09T13:02:58;31.43;;;18.73;;
36747;SDS011;22716;51.556;5.080;2023-03-09T13:05:31;35.65;;;18.63;;
36747;SDS011;22716;51.556;5.080;2023-03-09T13:08:19;33.87;;;19.43;;
36747;SDS011;22716;51.556;5.080;2023-03-09T13:10:53;32.23;;;19.90;;
36747;SDS011;22716;51.556;5.080;2023-03-09T13:13:57;32.47;;;18.67;;
36747;SDS011;22716;51.556;5.080;2023-03-09T13:22:22;30.63;;;16.63;;
36747;SDS011;22716;51.556;5.080;2023-03-09T13:27:46;38.73;;;18.27;;
36747;SDS011;22716;51.556;5.080;2023-03-09T13:30:19;31.07;;;17.10;;
36747;SDS011;22716;51.556;5.080;2023-03-09T13:32:56;36.47;;;19.93;;
36747;SDS011;22716;51.556;5.080;2023-03-09T13:35:33;32.67;;;19.50;;
36747;SDS011;22716;51.556;5.080;2023-03-09T13:38:05;33.50;;;18.20;;
36747;SDS011;22716;51.556;5.080;2023-03-09T13:40:46;32.67;;;18.17;;
36747;SDS011;22716;51.556;5.080;2023-03-09T13:46:03;32.23;;;18.23;;
36747;SDS011;22716;51.556;5.080;2023-03-09T13:48:35;31.30;;;16.97;;
36747;SDS011;22716;51.556;5.080;2023-03-09T13:51:22;31.97;;;17.97;;
36747;SDS011;22716;51.556;5.080;2023-03-09T13:53:56;30.83;;;17.92;;
36747;SDS011;22716;51.556;5.080;2023-03-09T13:56:24;28.63;;;16.93;;
36747;SDS011;22716;51.556;5.080;2023-03-09T13:58:56;29.30;;;17.13;;
36747;SDS011;22716;51.556;5.080;2023-03-09T14:01:27;28.73;;;16.60;;
36747;SDS011;22716;51.556;5.080;2023-03-09T14:03:57;32.83;;;18.17;;
36747;SDS011;22716;51.556;5.080;2023-03-09T14:06:30;30.63;;;18.10;;
36747;SDS011;22716;51.556;5.080;2023-03-09T14:09:05;28.03;;;16.77;;
36747;SDS011;22716;51.556;5.080;2023-03-09T14:11:48;26.77;;;16.17;;
36747;SDS011;22716;51.556;5.080;2023-03-09T14:14:20;28.63;;;15.77;;
36747;SDS011;22716;51.556;5.080;2023-03-09T14:16:52;30.10;;;17.27;;
36747;SDS011;22716;51.556;5.080;2023-03-09T14:19:24;31.77;;;17.30;;
36747;SDS011;22716;51.556;5.080;2023-03-09T14:21:56;30.80;;;16.60;;
36747;SDS011;22716;51.556;5.080;2023-03-09T14:24:29;27.17;;;16.50;;
36747;SDS011;22716;51.556;5.080;2023-03-09T14:27:10;24.40;;;14.97;;
36747;SDS011;22716;51.556;5.080;2023-03-09T14:29:44;27.50;;;15.37;;
36747;SDS011;22716;51.556;5.080;2023-03-09T14:32:24;26.02;;;14.32;;
36747;SDS011;22716;51.556;5.080;2023-03-09T14:34:55;24.47;;;15.00;;
36747;SDS011;22716;51.556;5.080;2023-03-09T14:37:26;23.63;;;13.60;;
36747;SDS011;22716;51.556;5.080;2023-03-09T14:39:56;22.10;;;13.00;;
36747;SDS011;22716;51.556;5.080;2023-03-09T14:42:28;23.67;;;12.37;;
36747;SDS011;22716;51.556;5.080;2023-03-09T14:45:03;23.23;;;12.90;;
36747;SDS011;22716;51.556;5.080;2023-03-09T14:47:37;22.07;;;11.87;;
36747;SDS011;22716;51.556;5.080;2023-03-09T14:50:07;21.43;;;11.97;;
36747;SDS011;22716;51.556;5.080;2023-03-09T14:52:41;20.53;;;11.70;;
36747;SDS011;22716;51.556;5.080;2023-03-09T14:55:15;21.70;;;13.60;;
36747;SDS011;22716;51.556;5.080;2023-03-09T15:00:19;26.57;;;14.10;;
36747;SDS011;22716;51.556;5.080;2023-03-09T15:05:21;20.33;;;12.10;;
36747;SDS011;22716;51.556;5.080;2023-03-09T15:07:51;23.13;;;13.17;;
36747;SDS011;22716;51.556;5.080;2023-03-09T15:10:20;20.87;;;12.90;;
36747;SDS011;22716;51.556;5.080;2023-03-09T15:12:50;25.37;;;13.20;;
36747;SDS011;22716;51.556;5.080;2023-03-09T15:15:22;22.90;;;12.03;;
36747;SDS011;22716;51.556;5.080;2023-03-09T15:17:52;22.40;;;14.20;;
36747;SDS011;22716;51.556;5.080;2023-03-09T15:20:22;22.30;;;12.47;;